sensor_id;sensor_type;location;lat;lon;timestamp;pressure;altitude;pressure_sealevel;temperature;humidity
12785;BME280;6456;42.680;23.260;2023-09-12T00:01:41;94757.97;;;16.51;81.52
12785;BME280;6456;42.680;23.260;2023-09-12T00:04:08;94821.53;;;16.91;81.19
12785;BME280;6456;42.680;23.260;2023-09-12T00:06:36;94836.97;;;16.94;81.76
12785;BME280;6456;42.680;23.260;2023-09-12T00:09:03;94806.81;;;16.83;81.57
12785;BME280;6456;42.680;23.260;2023-09-12T00:11:32;94775.38;;;16.58;80.87
12785;BME280;6456;42.680;23.260;2023-09-12T00:14:02;94782.63;;;16.63;80.62
12785;BME280;6456;42.680;23.260;2023-09-12T00:16:32;94767.75;;;16.45;80.88
12785;BME280;6456;42.680;23.260;2023-09-12T00:19:01;94751.75;;;16.24;80.70
12785;BME280;6456;42.680;23.260;2023-09-12T00:21:33;94791.13;;;16.48;80.60
12785;BME280;6456;42.680;23.260;2023-09-12T00:24:00;94839.94;;;16.76;81.09
12785;BME280;6456;42.680;23.260;2023-09-12T00:26:28;94837.19;;;16.71;80.77
12785;BME280;6456;42.680;23.260;2023-09-12T00:28:56;94803.88;;;16.46;81.06
12785;BME280;6456;42.680;23.260;2023-09-12T00:31:25;94780.31;;;16.33;81.98
12785;BME280;6456;42.680;23.260;2023-09-12T00:33:56;94835.03;;;16.67;82.09
12785;BME280;6456;42.680;23.260;2023-09-12T00:36:26;94813.19;;;16.49;82.69
12785;BME280;6456;42.680;23.260;2023-09-12T00:38:52;94844.50;;;16.63;81.45
12785;BME280;6456;42.680;23.260;2023-09-12T00:41:19;94783.69;;;16.29;81.57
12785;BME280;6456;42.680;23.260;2023-09-12T00:43:46;94841.84;;;16.63;81.19
12785;BME280;6456;42.680;23.260;2023-09-12T00:46:16;94799.94;;;16.32;81.23
12785;BME280;6456;42.680;23.260;2023-09-12T00:48:54;94727.50;;;15.82;81.24
12785;BME280;6456;42.680;23.260;2023-09-12T00:51:26;94801.41;;;16.23;81.84
12785;BME280;6456;42.680;23.260;2023-09-12T00:53:54;94837.59;;;16.46;82.33
12785;BME280;6456;42.680;23.260;2023-09-12T00:56:26;94835.59;;;16.36;82.54
12785;BME280;6456;42.680;23.260;2023-09-12T00:58:55;94777.78;;;16.05;82.32
12785;BME280;6456;42.680;23.260;2023-09-12T01:01:25;94765.78;;;15.86;82.41
12785;BME280;6456;42.680;23.260;2023-09-12T01:03:57;94796.81;;;16.02;83.27
12785;BME280;6456;42.680;23.260;2023-09-12T01:06:27;94755.06;;;15.81;83.36
12785;BME280;6456;42.680;23.260;2023-09-12T01:08:55;94799.47;;;16.02;83.77
12785;BME280;6456;42.680;23.260;2023-09-12T01:11:26;94826.91;;;16.24;83.75
12785;BME280;6456;42.680;23.260;2023-09-12T01:13:54;94810.66;;;16.04;84.06
12785;BME280;6456;42.680;23.260;2023-09-12T01:16:21;94863.97;;;16.36;84.78
12785;BME280;6456;42.680;23.260;2023-09-12T01:18:54;94817.72;;;15.98;85.28
12785;BME280;6456;42.680;23.260;2023-09-12T01:21:50;94861.28;;;16.31;86.25
12785;BME280;6456;42.680;23.260;2023-09-12T01:27:22;94825.13;;;15.96;86.20
12785;BME280;6456;42.680;23.260;2023-09-12T01:29:53;94846.91;;;15.98;86.90
12785;BME280;6456;42.680;23.260;2023-09-12T01:32:23;94846.13;;;15.98;87.28
12785;BME280;6456;42.680;23.260;2023-09-12T01:34:50;94854.97;;;16.03;87.15
12785;BME280;6456;42.680;23.260;2023-09-12T01:37:17;94821.84;;;15.89;87.10
12785;BME280;6456;42.680;23.260;2023-09-12T01:39:43;94846.78;;;16.05;87.37
12785;BME280;6456;42.680;23.260;2023-09-12T01:42:14;94728.72;;;15.29;87.42
12785;BME280;6456;42.680;23.260;2023-09-12T01:44:45;94814.81;;;15.83;87.38
12785;BME280;6456;42.680;23.260;2023-09-12T01:47:13;94817.81;;;15.87;86.39
12785;BME280;6456;42.680;23.260;2023-09-12T01:49:42;94829.63;;;15.96;87.06
12785;BME280;6456;42.680;23.260;2023-09-12T01:52:10;94854.19;;;16.03;87.28
12785;BME280;6456;42.680;23.260;2023-09-12T01:54:39;94814.50;;;15.80;87.77
12785;BME280;6456;42.680;23.260;2023-09-12T01:57:07;94810.63;;;15.71;88.09
12785;BME280;6456;42.680;23.260;2023-09-12T01:59:34;94816.91;;;15.81;87.99
12785;BME280;6456;42.680;23.260;2023-09-12T02:02:03;94808.50;;;15.56;87.95
12785;BME280;6456;42.680;23.260;2023-09-12T02:04:30;94773.41;;;15.37;88.50
12785;BME280;6456;42.680;23.260;2023-09-12T02:06:57;94867.47;;;16.03;88.66
12785;BME280;6456;42.680;23.260;2023-09-12T02:09:24;94828.50;;;15.75;89.13
12785;BME280;6456;42.680;23.260;2023-09-12T02:11:51;94842.53;;;15.76;88.53
12785;BME280;6456;42.680;23.260;2023-09-12T02:14:18;94869.50;;;15.84;88.49
12785;BME280;6456;42.680;23.260;2023-09-12T02:16:45;94889.28;;;15.93;88.50
12785;BME280;6456;42.680;23.260;2023-09-12T02:19:14;94793.81;;;15.37;88.28
12785;BME280;6456;42.680;23.260;2023-09-12T02:21:41;94801.31;;;15.40;88.07
12785;BME280;6456;42.680;23.260;2023-09-12T02:24:08;94879.31;;;15.84;88.15
12785;BME280;6456;42.680;23.260;2023-09-12T02:26:35;94824.94;;;15.41;88.04
12785;BME280;6456;42.680;23.260;2023-09-12T02:29:03;94784.22;;;15.19;88.05
12785;BME280;6456;42.680;23.260;2023-09-12T02:31:31;94813.09;;;15.32;88.31
12785;BME280;6456;42.680;23.260;2023-09-12T02:33:58;94858.91;;;15.56;88.76
12785;BME280;6456;42.680;23.260;2023-09-12T02:36:28;94880.19;;;15.73;88.85
12785;BME280;6456;42.680;23.260;2023-09-12T02:38:55;94816.38;;;15.23;89.41
12785;BME280;6456;42.680;23.260;2023-09-12T02:41:22;94812.56;;;15.19;89.00
12785;BME280;6456;42.680;23.260;2023-09-12T02:43:49;94787.41;;;14.93;89.32
12785;BME280;6456;42.680;23.260;2023-09-12T02:46:15;94810.53;;;15.09;89.73
12785;BME280;6456;42.680;23.260;2023-09-12T02:48:43;94878.75;;;15.54;90.60
12785;BME280;6456;42.680;23.260;2023-09-12T02:51:11;94841.34;;;15.27;90.11
12785;BME280;6456;42.680;23.260;2023-09-12T02:53:39;94844.91;;;15.32;90.51
12785;BME280;6456;42.680;23.260;2023-09-12T02:56:06;94883.63;;;15.45;90.15
12785;BME280;6456;42.680;23.260;2023-09-12T02:58:33;94855.97;;;15.29;90.59
12785;BME280;6456;42.680;23.260;2023-09-12T03:01:00;94842.78;;;15.18;90.41
12785;BME280;6456;42.680;23.260;2023-09-12T03:03:30;94847.00;;;15.30;91.44
12785;BME280;6456;42.680;23.260;2023-09-12T03:05:58;94882.22;;;15.43;91.30
12785;BME280;6456;42.680;23.260;2023-09-12T03:08:25;94840.03;;;15.13;91.44
12785;BME280;6456;42.680;23.260;2023-09-12T03:10:57;94832.75;;;15.08;91.66
12785;BME280;6456;42.680;23.260;2023-09-12T03:13:26;94804.47;;;14.86;91.38
12785;BME280;6456;42.680;23.260;2023-09-12T03:15:53;94857.06;;;15.17;92.41
12785;BME280;6456;42.680;23.260;2023-09-12T03:18:20;94762.75;;;14.53;92.28
12785;BME280;6456;42.680;23.260;2023-09-12T03:20:47;94813.00;;;14.88;91.96
12785;BME280;6456;42.680;23.260;2023-09-12T03:23:14;94861.22;;;15.13;92.09
12785;BME280;6456;42.680;23.260;2023-09-12T03:25:41;94867.09;;;15.15;92.30
12785;BME280;6456;42.680;23.260;2023-09-12T03:28:09;94844.78;;;14.99;92.58
12785;BME280;6456;42.680;23.260;2023-09-12T03:30:37;94848.69;;;14.97;92.85
12785;BME280;6456;42.680;23.260;2023-09-12T03:33:05;94781.97;;;14.48;93.12
12785;BME280;6456;42.680;23.260;2023-09-12T03:35:33;94853.44;;;14.95;93.40
12785;BME280;6456;42.680;23.260;2023-09-12T03:38:00;94892.22;;;15.12;93.42
12785;BME280;6456;42.680;23.260;2023-09-12T03:40:28;94864.25;;;14.93;93.85
12785;BME280;6456;42.680;23.260;2023-09-12T03:42:56;94818.09;;;14.66;94.05
12785;BME280;6456;42.680;23.260;2023-09-12T03:45:25;94847.09;;;14.84;94.10
12785;BME280;6456;42.680;23.260;2023-09-12T03:47:52;94811.41;;;14.63;93.75
12785;BME280;6456;42.680;23.260;2023-09-12T03:50:19;94874.38;;;14.96;94.02
12785;BME280;6456;42.680;23.260;2023-09-12T03:52:46;94822.81;;;14.64;94.13
12785;BME280;6456;42.680;23.260;2023-09-12T03:55:13;94867.25;;;14.85;94.59
12785;BME280;6456;42.680;23.260;2023-09-12T03:57:40;94854.13;;;14.78;95.06
12785;BME280;6456;42.680;23.260;2023-09-12T04:00:08;94885.31;;;15.00;94.79
12785;BME280;6456;42.680;23.260;2023-09-12T04:02:37;94864.38;;;14.87;95.08
12785;BME280;6456;42.680;23.260;2023-09-12T04:05:04;94809.50;;;14.47;95.29
12785;BME280;6456;42.680;23.260;2023-09-12T04:07:31;94862.06;;;14.78;95.47
12785;BME280;6456;42.680;23.260;2023-09-12T04:09:58;94814.34;;;14.50;96.10
12785;BME280;6456;42.680;23.260;2023-09-12T04:12:25;94822.03;;;14.52;95.64
12785;BME280;6456;42.680;23.260;2023-09-12T04:14:52;94826.88;;;14.55;95.26
12785;BME280;6456;42.680;23.260;2023-09-12T04:17:20;94896.13;;;14.98;95.45
12785;BME280;6456;42.680;23.260;2023-09-12T04:19:48;94842.63;;;14.61;95.53
12785;BME280;6456;42.680;23.260;2023-09-12T04:22:15;94897.19;;;14.97;95.88
12785;BME280;6456;42.680;23.260;2023-09-12T04:24:42;94886.28;;;14.82;95.80
12785;BME280;6456;42.680;23.260;2023-09-12T04:27:08;94853.22;;;14.61;95.65
12785;BME280;6456;42.680;23.260;2023-09-12T04:29:35;94863.69;;;14.68;95.75
12785;BME280;6456;42.680;23.260;2023-09-12T04:32:02;94909.28;;;14.93;95.92
12785;BME280;6456;42.680;23.260;2023-09-12T04:34:29;94894.66;;;14.91;95.98
12785;BME280;6456;42.680;23.260;2023-09-12T04:36:58;94908.00;;;14.96;96.33
12785;BME280;6456;42.680;23.260;2023-09-12T04:39:25;94852.19;;;14.62;96.46
12785;BME280;6456;42.680;23.260;2023-09-12T04:41:53;94887.19;;;14.88;95.93
12785;BME280;6456;42.680;23.260;2023-09-12T04:44:19;94875.09;;;14.80;95.69
12785;BME280;6456;42.680;23.260;2023-09-12T04:46:46;94904.34;;;14.97;95.58
12785;BME280;6456;42.680;23.260;2023-09-12T04:49:13;94846.41;;;14.65;95.14
12785;BME280;6456;42.680;23.260;2023-09-12T04:51:40;94836.53;;;14.61;94.74
12785;BME280;6456;42.680;23.260;2023-09-12T04:54:09;94891.09;;;14.97;94.83
12785;BME280;6456;42.680;23.260;2023-09-12T04:56:36;94882.22;;;14.91;94.53
12785;BME280;6456;42.680;23.260;2023-09-12T04:59:03;94832.63;;;14.75;93.98
12785;BME280;6456;42.680;23.260;2023-09-12T05:01:32;94880.25;;;14.98;94.01
12785;BME280;6456;42.680;23.260;2023-09-12T05:03:58;94919.84;;;15.28;93.70
12785;BME280;6456;42.680;23.260;2023-09-12T05:06:25;94796.69;;;14.56;94.43
12785;BME280;6456;42.680;23.260;2023-09-12T05:08:52;94827.53;;;14.85;93.98
12785;BME280;6456;42.680;23.260;2023-09-12T05:11:21;94917.28;;;15.45;94.10
12785;BME280;6456;42.680;23.260;2023-09-12T05:13:48;94909.22;;;15.39;93.16
12785;BME280;6456;42.680;23.260;2023-09-12T05:16:15;94906.09;;;15.54;91.26
12785;BME280;6456;42.680;23.260;2023-09-12T05:18:42;94903.69;;;15.53;89.85
12785;BME280;6456;42.680;23.260;2023-09-12T05:21:09;94911.84;;;15.63;89.67
12785;BME280;6456;42.680;23.260;2023-09-12T05:23:35;94924.00;;;15.75;89.38
12785;BME280;6456;42.680;23.260;2023-09-12T05:26:02;94915.34;;;15.80;88.95
12785;BME280;6456;42.680;23.260;2023-09-12T05:28:30;94823.31;;;15.12;89.23
12785;BME280;6456;42.680;23.260;2023-09-12T05:30:57;94891.63;;;15.62;89.93
12785;BME280;6456;42.680;23.260;2023-09-12T05:33:24;94860.16;;;15.25;88.57
12785;BME280;6456;42.680;23.260;2023-09-12T05:35:51;94895.13;;;15.51;89.81
12785;BME280;6456;42.680;23.260;2023-09-12T05:38:18;94928.16;;;15.71;89.57
12785;BME280;6456;42.680;23.260;2023-09-12T05:40:45;94928.97;;;15.72;89.18
12785;BME280;6456;42.680;23.260;2023-09-12T05:43:12;94930.09;;;15.76;88.96
12785;BME280;6456;42.680;23.260;2023-09-12T05:45:40;94927.53;;;15.81;89.21
12785;BME280;6456;42.680;23.260;2023-09-12T05:48:06;94832.69;;;15.31;89.07
12785;BME280;6456;42.680;23.260;2023-09-12T05:50:34;94895.69;;;15.81;88.80
12785;BME280;6456;42.680;23.260;2023-09-12T05:53:02;94861.44;;;15.63;88.92
12785;BME280;6456;42.680;23.260;2023-09-12T05:55:29;94912.00;;;16.01;88.05
12785;BME280;6456;42.680;23.260;2023-09-12T05:57:56;94868.97;;;15.71;87.21
12785;BME280;6456;42.680;23.260;2023-09-12T06:00:23;94914.25;;;16.09;87.42
12785;BME280;6456;42.680;23.260;2023-09-12T06:02:51;94927.72;;;16.19;87.27
12785;BME280;6456;42.680;23.260;2023-09-12T06:05:18;94834.66;;;15.64;86.78
12785;BME280;6456;42.680;23.260;2023-09-12T06:07:45;94925.78;;;16.31;86.36
12785;BME280;6456;42.680;23.260;2023-09-12T06:10:12;94928.63;;;16.41;85.48
12785;BME280;6456;42.680;23.260;2023-09-12T06:12:39;94870.28;;;16.13;84.66
12785;BME280;6456;42.680;23.260;2023-09-12T06:15:06;94910.44;;;16.50;84.88
12785;BME280;6456;42.680;23.260;2023-09-12T06:17:33;94852.25;;;16.15;85.36
12785;BME280;6456;42.680;23.260;2023-09-12T06:20:01;94898.56;;;16.52;84.59
12785;BME280;6456;42.680;23.260;2023-09-12T06:22:31;94941.69;;;16.76;83.92
12785;BME280;6456;42.680;23.260;2023-09-12T06:24:59;94921.09;;;16.66;83.42
12785;BME280;6456;42.680;23.260;2023-09-12T06:27:26;94858.28;;;16.27;82.60
12785;BME280;6456;42.680;23.260;2023-09-12T06:29:52;94892.19;;;16.53;83.62
12785;BME280;6456;42.680;23.260;2023-09-12T06:32:19;94883.06;;;16.49;83.52
12785;BME280;6456;42.680;23.260;2023-09-12T06:34:46;94925.59;;;16.83;82.56
12785;BME280;6456;42.680;23.260;2023-09-12T06:37:14;94927.34;;;16.94;81.91
12785;BME280;6456;42.680;23.260;2023-09-12T06:39:41;94884.78;;;16.72;81.75
12785;BME280;6456;42.680;23.260;2023-09-12T06:42:09;94869.09;;;16.71;81.79
12785;BME280;6456;42.680;23.260;2023-09-12T06:44:35;94867.59;;;16.80;81.78
12785;BME280;6456;42.680;23.260;2023-09-12T06:47:03;94943.03;;;17.33;82.49
12785;BME280;6456;42.680;23.260;2023-09-12T06:49:30;94940.16;;;17.35;81.97
12785;BME280;6456;42.680;23.260;2023-09-12T06:51:57;94943.97;;;17.44;81.42
12785;BME280;6456;42.680;23.260;2023-09-12T06:54:26;94877.03;;;17.09;79.68
12785;BME280;6456;42.680;23.260;2023-09-12T06:56:52;94953.97;;;17.54;79.10
12785;BME280;6456;42.680;23.260;2023-09-12T06:59:19;94885.75;;;17.26;79.15
12785;BME280;6456;42.680;23.260;2023-09-12T07:01:46;94921.31;;;17.58;78.59
12785;BME280;6456;42.680;23.260;2023-09-12T07:04:13;94955.66;;;17.81;78.49
12785;BME280;6456;42.680;23.260;2023-09-12T07:06:40;94921.50;;;17.73;76.95
12785;BME280;6456;42.680;23.260;2023-09-12T07:09:07;94955.16;;;18.06;74.95
12785;BME280;6456;42.680;23.260;2023-09-12T07:11:38;94953.47;;;18.00;74.85
12785;BME280;6456;42.680;23.260;2023-09-12T07:14:05;94955.75;;;18.13;72.96
12785;BME280;6456;42.680;23.260;2023-09-12T07:16:33;94962.16;;;18.17;73.47
12785;BME280;6456;42.680;23.260;2023-09-12T07:18:59;94954.19;;;18.17;73.68
12785;BME280;6456;42.680;23.260;2023-09-12T07:21:26;94917.00;;;18.01;73.19
12785;BME280;6456;42.680;23.260;2023-09-12T07:23:53;94959.72;;;18.37;71.82
12785;BME280;6456;42.680;23.260;2023-09-12T07:26:20;94889.56;;;18.00;71.19
12785;BME280;6456;42.680;23.260;2023-09-12T07:28:50;94934.59;;;18.28;70.84
12785;BME280;6456;42.680;23.260;2023-09-12T07:31:16;94895.03;;;18.15;70.58
12785;BME280;6456;42.680;23.260;2023-09-12T07:33:43;94895.63;;;18.22;69.77
12785;BME280;6456;42.680;23.260;2023-09-12T07:36:10;94961.72;;;18.79;69.40
12785;BME280;6456;42.680;23.260;2023-09-12T07:38:37;94961.41;;;18.75;68.02
12785;BME280;6456;42.680;23.260;2023-09-12T07:41:07;94950.31;;;18.88;68.02
12785;BME280;6456;42.680;23.260;2023-09-12T07:43:34;94944.19;;;18.88;67.29
12785;BME280;6456;42.680;23.260;2023-09-12T07:46:02;94845.47;;;18.41;66.55
12785;BME280;6456;42.680;23.260;2023-09-12T07:48:29;94955.28;;;19.16;67.12
12785;BME280;6456;42.680;23.260;2023-09-12T07:50:56;94865.38;;;18.65;64.36
12785;BME280;6456;42.680;23.260;2023-09-12T07:53:23;94950.63;;;19.34;63.15
12785;BME280;6456;42.680;23.260;2023-09-12T07:55:50;94939.75;;;19.45;63.08
12785;BME280;6456;42.680;23.260;2023-09-12T07:58:17;94946.97;;;19.50;61.81
12785;BME280;6456;42.680;23.260;2023-09-12T08:00:45;94944.63;;;19.58;60.90
12785;BME280;6456;42.680;23.260;2023-09-12T08:03:13;94949.22;;;19.68;61.11
12785;BME280;6456;42.680;23.260;2023-09-12T08:05:40;94945.25;;;19.75;60.69
12785;BME280;6456;42.680;23.260;2023-09-12T08:08:07;94942.81;;;19.69;60.35
12785;BME280;6456;42.680;23.260;2023-09-12T08:10:34;94889.88;;;19.46;60.13
12785;BME280;6456;42.680;23.260;2023-09-12T08:13:00;94954.13;;;19.96;58.46
12785;BME280;6456;42.680;23.260;2023-09-12T08:15:27;94952.28;;;20.07;57.75
12785;BME280;6456;42.680;23.260;2023-09-12T08:17:54;94942.41;;;20.12;57.83
12785;BME280;6456;42.680;23.260;2023-09-12T08:20:22;94946.75;;;20.23;57.94
12785;BME280;6456;42.680;23.260;2023-09-12T08:22:49;94889.44;;;19.84;55.89
12785;BME280;6456;42.680;23.260;2023-09-12T08:25:16;94902.84;;;19.99;55.76
12785;BME280;6456;42.680;23.260;2023-09-12T08:27:43;94944.94;;;20.49;54.52
12785;BME280;6456;42.680;23.260;2023-09-12T08:30:11;94946.25;;;20.47;54.04
12785;BME280;6456;42.680;23.260;2023-09-12T08:32:38;94943.03;;;20.44;54.19
12785;BME280;6456;42.680;23.260;2023-09-12T08:35:09;94920.06;;;20.43;53.87
12785;BME280;6456;42.680;23.260;2023-09-12T08:37:37;94947.88;;;20.73;52.89
12785;BME280;6456;42.680;23.260;2023-09-12T08:40:06;94946.81;;;20.74;52.79
12785;BME280;6456;42.680;23.260;2023-09-12T08:42:39;94913.09;;;20.73;52.23
12785;BME280;6456;42.680;23.260;2023-09-12T08:45:11;94935.56;;;20.97;52.06
12785;BME280;6456;42.680;23.260;2023-09-12T08:47:40;94930.75;;;20.99;51.11
12785;BME280;6456;42.680;23.260;2023-09-12T08:50:10;94922.16;;;21.02;51.00
12785;BME280;6456;42.680;23.260;2023-09-12T08:52:39;94923.00;;;21.13;50.78
12785;BME280;6456;42.680;23.260;2023-09-12T08:55:06;94893.56;;;21.07;49.35
12785;BME280;6456;42.680;23.260;2023-09-12T08:57:36;94922.72;;;21.19;51.19
12785;BME280;6456;42.680;23.260;2023-09-12T09:00:05;94890.63;;;21.19;50.67
12785;BME280;6456;42.680;23.260;2023-09-12T09:02:34;94931.22;;;21.51;50.37
12785;BME280;6456;42.680;23.260;2023-09-12T09:05:02;94873.47;;;21.20;48.09
12785;BME280;6456;42.680;23.260;2023-09-12T09:07:32;94934.88;;;21.76;48.65
12785;BME280;6456;42.680;23.260;2023-09-12T09:10:03;94924.16;;;21.76;46.90
12785;BME280;6456;42.680;23.260;2023-09-12T09:12:32;94902.75;;;21.70;47.05
12785;BME280;6456;42.680;23.260;2023-09-12T09:14:59;94920.34;;;21.97;46.82
12785;BME280;6456;42.680;23.260;2023-09-12T09:17:46;94870.00;;;21.84;46.07
12785;BME280;6456;42.680;23.260;2023-09-12T09:20:21;94925.59;;;22.17;45.03
12785;BME280;6456;42.680;23.260;2023-09-12T09:22:56;94879.91;;;21.93;44.42
12785;BME280;6456;42.680;23.260;2023-09-12T09:25:26;94919.38;;;22.26;44.25
12785;BME280;6456;42.680;23.260;2023-09-12T09:27:53;94912.56;;;22.44;45.87
12785;BME280;6456;42.680;23.260;2023-09-12T09:30:39;94891.19;;;22.34;44.37
12785;BME280;6456;42.680;23.260;2023-09-12T09:33:06;94899.66;;;22.46;43.85
12785;BME280;6456;42.680;23.260;2023-09-12T09:35:33;94883.78;;;22.50;43.89
12785;BME280;6456;42.680;23.260;2023-09-12T09:38:00;94898.44;;;22.67;44.28
12785;BME280;6456;42.680;23.260;2023-09-12T09:40:28;94895.16;;;22.75;43.47
12785;BME280;6456;42.680;23.260;2023-09-12T09:42:57;94888.94;;;22.80;42.49
12785;BME280;6456;42.680;23.260;2023-09-12T09:45:25;94832.53;;;22.56;43.02
12785;BME280;6456;42.680;23.260;2023-09-12T09:47:52;94880.28;;;22.88;43.02
12785;BME280;6456;42.680;23.260;2023-09-12T09:50:19;94895.69;;;23.06;43.57
12785;BME280;6456;42.680;23.260;2023-09-12T09:52:45;94896.66;;;23.15;43.36
12785;BME280;6456;42.680;23.260;2023-09-12T09:55:13;94875.38;;;23.24;42.73
12785;BME280;6456;42.680;23.260;2023-09-12T09:57:42;94892.16;;;23.39;41.77
12785;BME280;6456;42.680;23.260;2023-09-12T10:00:09;94861.91;;;23.29;41.35
12785;BME280;6456;42.680;23.260;2023-09-12T10:02:40;94881.31;;;23.49;42.53
12785;BME280;6456;42.680;23.260;2023-09-12T10:05:09;94885.25;;;23.57;41.70
12785;BME280;6456;42.680;23.260;2023-09-12T10:07:38;94884.66;;;23.60;41.32
12785;BME280;6456;42.680;23.260;2023-09-12T10:10:06;94873.84;;;23.65;41.18
12785;BME280;6456;42.680;23.260;2023-09-12T10:12:35;94879.09;;;23.75;41.58
12785;BME280;6456;42.680;23.260;2023-09-12T10:15:04;94865.97;;;23.74;42.03
12785;BME280;6456;42.680;23.260;2023-09-12T10:17:36;94866.69;;;23.79;40.55
12785;BME280;6456;42.680;23.260;2023-09-12T10:20:08;94870.47;;;23.78;40.33
12785;BME280;6456;42.680;23.260;2023-09-12T10:22:43;94850.41;;;23.71;40.81
12785;BME280;6456;42.680;23.260;2023-09-12T10:25:11;94836.91;;;23.76;41.01
12785;BME280;6456;42.680;23.260;2023-09-12T10:27:38;94855.38;;;24.01;40.80
12785;BME280;6456;42.680;23.260;2023-09-12T10:30:08;94865.22;;;24.10;40.48
12785;BME280;6456;42.680;23.260;2023-09-12T10:32:36;94828.31;;;23.97;39.56
12785;BME280;6456;42.680;23.260;2023-09-12T10:35:04;94856.94;;;24.26;39.72
12785;BME280;6456;42.680;23.260;2023-09-12T10:37:35;94857.97;;;24.30;39.50
12785;BME280;6456;42.680;23.260;2023-09-12T10:40:05;94850.25;;;24.42;40.26
12785;BME280;6456;42.680;23.260;2023-09-12T10:42:34;94850.66;;;24.49;39.05
12785;BME280;6456;42.680;23.260;2023-09-12T10:45:02;94853.78;;;24.56;39.28
12785;BME280;6456;42.680;23.260;2023-09-12T10:47:31;94794.00;;;24.27;38.43
12785;BME280;6456;42.680;23.260;2023-09-12T10:49:58;94846.44;;;24.61;38.97
12785;BME280;6456;42.680;23.260;2023-09-12T10:52:25;94823.50;;;24.64;38.61
12785;BME280;6456;42.680;23.260;2023-09-12T10:54:52;94817.91;;;24.60;38.89
12785;BME280;6456;42.680;23.260;2023-09-12T10:57:21;94810.56;;;24.66;37.91
12785;BME280;6456;42.680;23.260;2023-09-12T11:00:16;94794.91;;;24.68;37.38
12785;BME280;6456;42.680;23.260;2023-09-12T11:02:44;94814.53;;;25.01;38.26
12785;BME280;6456;42.680;23.260;2023-09-12T11:05:36;94815.34;;;25.01;37.93
12785;BME280;6456;42.680;23.260;2023-09-12T11:08:03;94800.88;;;24.97;38.23
12785;BME280;6456;42.680;23.260;2023-09-12T11:10:30;94816.16;;;25.02;37.65
12785;BME280;6456;42.680;23.260;2023-09-12T11:12:58;94814.47;;;25.19;37.37
12785;BME280;6456;42.680;23.260;2023-09-12T11:15:27;94823.75;;;25.27;38.87
12785;BME280;6456;42.680;23.260;2023-09-12T11:18:05;94804.00;;;25.31;38.03
12785;BME280;6456;42.680;23.260;2023-09-12T11:20:59;94816.59;;;25.50;37.16
12785;BME280;6456;42.680;23.260;2023-09-12T11:23:28;94809.59;;;25.48;37.37
12785;BME280;6456;42.680;23.260;2023-09-12T11:26:04;94820.53;;;25.66;36.39
12785;BME280;6456;42.680;23.260;2023-09-12T11:28:32;94817.94;;;25.74;35.60
12785;BME280;6456;42.680;23.260;2023-09-12T11:30:59;94812.78;;;25.78;35.93
12785;BME280;6456;42.680;23.260;2023-09-12T11:33:27;94802.97;;;25.82;35.82
12785;BME280;6456;42.680;23.260;2023-09-12T11:36:02;94764.88;;;25.61;36.03
12785;BME280;6456;42.680;23.260;2023-09-12T11:38:34;94798.94;;;25.93;35.80
12785;BME280;6456;42.680;23.260;2023-09-12T11:41:03;94760.66;;;25.69;35.82
12785;BME280;6456;42.680;23.260;2023-09-12T11:43:33;94746.91;;;25.57;35.81
12785;BME280;6456;42.680;23.260;2023-09-12T11:46:01;94797.34;;;25.92;35.11
12785;BME280;6456;42.680;23.260;2023-09-12T11:48:30;94781.78;;;25.89;34.69
12785;BME280;6456;42.680;23.260;2023-09-12T11:50:58;94795.13;;;25.94;34.06
12785;BME280;6456;42.680;23.260;2023-09-12T11:53:27;94787.53;;;25.96;34.05
12785;BME280;6456;42.680;23.260;2023-09-12T11:55:58;94781.56;;;25.85;33.96
12785;BME280;6456;42.680;23.260;2023-09-12T11:58:26;94780.47;;;26.00;33.83
12785;BME280;6456;42.680;23.260;2023-09-12T12:00:56;94761.25;;;26.01;34.38
12785;BME280;6456;42.680;23.260;2023-09-12T12:03:25;94763.97;;;26.01;33.88
12785;BME280;6456;42.680;23.260;2023-09-12T12:05:54;94773.50;;;26.21;33.64
12785;BME280;6456;42.680;23.260;2023-09-12T12:08:23;94760.09;;;26.30;34.29
12785;BME280;6456;42.680;23.260;2023-09-12T12:10:56;94754.50;;;26.26;35.35
12785;BME280;6456;42.680;23.260;2023-09-12T12:13:26;94762.22;;;26.41;33.79
12785;BME280;6456;42.680;23.260;2023-09-12T12:15:53;94773.75;;;26.55;34.29
12785;BME280;6456;42.680;23.260;2023-09-12T12:18:21;94772.69;;;26.65;33.29
12785;BME280;6456;42.680;23.260;2023-09-12T12:20:48;94775.06;;;26.66;33.04
12785;BME280;6456;42.680;23.260;2023-09-12T12:23:16;94769.31;;;26.59;33.24
12785;BME280;6456;42.680;23.260;2023-09-12T12:25:42;94755.34;;;26.57;32.69
12785;BME280;6456;42.680;23.260;2023-09-12T12:28:09;94733.41;;;26.50;32.63
12785;BME280;6456;42.680;23.260;2023-09-12T12:30:36;94764.63;;;26.73;33.12
12785;BME280;6456;42.680;23.260;2023-09-12T12:33:07;94755.44;;;26.74;32.58
12785;BME280;6456;42.680;23.260;2023-09-12T12:35:34;94759.78;;;26.84;32.33
12785;BME280;6456;42.680;23.260;2023-09-12T12:38:02;94749.31;;;26.83;31.56
12785;BME280;6456;42.680;23.260;2023-09-12T12:40:31;94743.78;;;26.88;31.81
12785;BME280;6456;42.680;23.260;2023-09-12T12:42:57;94750.59;;;26.85;31.79
12785;BME280;6456;42.680;23.260;2023-09-12T12:45:27;94743.13;;;26.82;31.79
12785;BME280;6456;42.680;23.260;2023-09-12T12:47:57;94743.63;;;26.93;31.69
12785;BME280;6456;42.680;23.260;2023-09-12T12:50:24;94749.06;;;27.01;31.80
12785;BME280;6456;42.680;23.260;2023-09-12T12:52:52;94737.81;;;27.08;32.28
12785;BME280;6456;42.680;23.260;2023-09-12T12:55:20;94737.81;;;27.08;31.79
12785;BME280;6456;42.680;23.260;2023-09-12T12:57:49;94739.88;;;27.11;32.57
12785;BME280;6456;42.680;23.260;2023-09-12T13:00:16;94717.47;;;27.02;30.68
12785;BME280;6456;42.680;23.260;2023-09-12T13:02:46;94739.09;;;27.10;30.50
12785;BME280;6456;42.680;23.260;2023-09-12T13:05:21;94734.00;;;27.09;30.41
12785;BME280;6456;42.680;23.260;2023-09-12T13:07:51;94742.00;;;27.22;30.56
12785;BME280;6456;42.680;23.260;2023-09-12T13:10:17;94738.22;;;27.32;30.95